Date,TemperatureHighF,TemperatureAvgF,TemperatureLowF,DewpointHighF,DewpointAvgF,DewpointLowF,HumidityHigh,HumidityAvg,HumidityLow,PressureMaxIn,PressureMinIn,WindSpeedMaxMPH,WindSpeedAvgMPH,GustSpeedMaxMPH,PrecipitationSumIn
2013-1-2,22.0,12.4,1.9,12.1,6.5,-0.4,92,78,53,30.33,30.24,3,0,5,0.00
2013-1-3,29.6,22.2,12.2,26.1,16.5,3.1,88,79,59,30.36,30.26,12,3,16,0.01
2013-1-4,30.7,22.9,16.7,22.2,17.8,13.1,90,81,70,30.40,30.34,14,4,19,0.00
2013-1-5,36.6,26.9,13.6,30.7,23.8,11.7,95,88,71,30.37,30.15,11,3,14,0.01
2013-1-6,35.1,32.3,25.1,32.1,28.7,20.9,92,86,80,30.21,30.04,16,6,20,0.03
2013-1-8,45.9,38.0,34.6,31.0,29.7,28.7,80,72,55,30.25,30.22,7,1,10,0.00
2013-1-9,46.1,39.3,28.2,39.1,34.8,26.8,95,84,68,30.53,30.20,13,3,17,0.06
2013-1-10,43.5,35.3,25.1,42.4,31.9,23.9,97,88,66,30.54,30.04,9,2,13,0.22
2013-1-11,58.8,52.4,43.6,53.6,49.4,42.4,98,90,73,30.05,29.82,16,5,23,0.87
2013-1-12,63.9,56.3,51.6,55.7,52.6,47.6,98,88,72,29.98,29.69,10,3,15,1.73
2013-1-13,54.5,34.0,21.3,53.9,33.1,18.8,98,96,89,30.25,29.66,19,6,26,1.02
2013-1-14,22.2,19.1,15.3,18.9,16.3,12.4,91,89,84,30.51,30.25,10,3,14,0.00
2013-1-15,29.8,24.1,18.0,23.0,19.9,15.9,92,84,71,30.45,30.15,6,2,10,0.00
2013-1-16,33.8,28.0,21.1,26.0,23.1,19.2,95,82,62,30.15,30.01,11,3,14,0.00
2013-1-17,37.2,30.6,21.1,31.0,24.7,16.9,89,79,60,30.46,30.12,16,3,19,0.00
2013-1-18,40.9,29.6,18.4,27.0,20.4,16.1,92,71,43,30.53,30.17,17,5,24,0.00
2013-1-19,51.5,42.8,37.0,37.6,31.7,26.0,79,65,56,30.18,29.88,17,9,28,0.00
2013-1-20,43.1,26.1,20.2,36.4,17.1,12.1,79,68,55,30.30,29.93,21,6,29,0.00
2013-1-21,21.2,14.6,7.9,14.2,7.3,-1.3,89,72,57,30.34,30.19,16,7,24,0.00
2013-1-22,16.8,9.6,3.6,3.2,0.0,-2.8,79,65,49,30.47,30.34,12,5,20,0.00
2013-1-23,13.3,12.1,9.8,3.1,2.0,1.0,71,64,58,30.42,30.39,8,2,10,0.00
2013-1-27,36.8,28.4,19.1,36.0,24.2,15.1,97,84,73,30.46,30.09,8,2,10,0.38
2013-1-28,53.9,48.5,36.9,53.6,47.5,36.0,99,96,91,30.13,29.98,15,6,24,0.10
2013-1-29,64.3,58.7,54.0,59.2,56.1,53.4,99,91,83,29.98,29.38,18,8,26,0.01
2013-1-30,64.3,44.5,26.2,59.9,42.6,22.3,98,93,83,29.64,29.25,23,7,32,0.86
2013-1-31,28.5,21.6,8.9,22.9,16.8,4.3,92,82,73,30.17,29.64,24,10,32,0.00
2013-2-1,17.3,10.4,4.5,10.4,4.4,-0.4,85,76,65,30.47,30.17,16,7,28,0.00
2013-2-2,27.7,10.9,-90.0,24.3,7.6,-91.4,92,87,77,30.34,30.05,14,4,16,0.00
2013-2-3,23.8,17.1,9.8,20.7,13.4,6.7,90,85,79,30.15,30.01,15,3,21,0.00
2013-2-4,39.8,28.2,19.3,33.2,23.1,14.4,88,81,72,30.15,29.83,10,3,14,0.00
2013-2-5,36.0,29.6,22.7,32.5,26.0,20.4,94,87,79,30.07,29.86,13,3,16,0.00
2013-2-6,31.6,29.9,28.8,29.0,26.9,24.9,91,88,85,30.18,30.07,9,6,16,0.00
2013-2-7,44.1,42.3,39.3,42.1,40.9,38.3,96,95,91,29.85,29.83,10,4,14,0.07
2013-2-8,39.3,32.4,30.5,38.1,29.5,24.8,96,89,79,30.39,29.85,18,7,21,0.00
2013-2-9,41.6,31.9,21.1,27.9,24.6,19.2,95,75,56,30.44,30.19,6,1,11,0.00
2013-2-10,50.3,40.0,32.9,47.7,33.7,23.6,92,78,67,30.19,29.73,18,3,18,0.14
2013-2-16,21.2,20.5,19.2,17.2,15.6,13.9,87,81,75,30.19,30.17,8,4,12,0.00
2013-2-17,19.2,17.0,14.6,14.4,11.9,10.3,84,80,76,30.20,30.18,8,4,10,0.00
2013-2-18,47.7,46.0,44.9,43.4,42.0,40.8,93,86,78,29.78,29.58,18,9,24,0.23
2013-2-19,45.5,25.8,20.8,43.8,20.7,12.3,95,81,68,30.18,29.58,22,10,31,0.06
2013-2-20,25.8,19.1,10.5,17.2,12.0,5.3,82,74,63,30.38,30.18,14,6,24,0.00
2013-2-21,31.5,24.6,15.3,26.7,19.7,12.4,93,82,68,30.41,30.03,17,3,20,0.00
2013-2-22,35.4,32.4,28.6,33.3,30.7,25.8,97,93,84,30.04,29.87,13,4,18,0.18
2013-2-23,36.2,28.2,23.1,27.4,23.2,20.3,89,82,67,30.03,29.96,12,4,17,0.00
2013-2-24,40.4,29.1,19.8,30.3,24.1,18.4,95,82,64,30.18,30.02,11,2,12,0.02
2013-2-25,44.8,34.7,24.4,30.4,26.7,21.8,91,74,53,30.20,29.89,13,2,18,0.00
2013-2-26,40.4,36.2,32.2,39.9,33.8,27.5,98,91,74,29.90,29.40,13,4,21,1.08
2013-2-27,40.1,33.9,31.2,39.6,32.6,29.2,98,95,90,29.73,29.50,17,7,19,0.01
2013-2-28,37.0,33.2,31.2,34.2,31.4,29.3,97,93,88,30.03,29.71,15,6,17,0.00
2013-3-1,32.9,31.1,29.4,31.0,28.7,26.3,95,91,84,30.11,29.99,11,4,13,0.00
2013-3-2,30.1,27.6,25.1,26.6,23.1,19.6,91,83,67,30.16,30.09,11,5,13,0.00
2013-3-3,33.5,26.2,20.5,24.2,20.7,18.3,95,80,60,30.17,30.11,11,3,14,0.00
2013-3-4,38.8,29.8,18.3,29.8,23.2,17.1,96,78,50,30.17,29.99,8,2,13,0.02
2013-3-5,36.5,33.8,27.1,34.0,31.0,26.4,97,90,78,30.01,29.68,10,3,12,0.06
2013-3-6,31.2,28.7,26.4,28.9,27.2,25.2,97,94,91,30.32,29.80,15,6,21,0.00
2013-3-7,35.7,30.6,25.9,30.5,26.7,23.4,94,86,70,30.44,30.31,7,2,7,0.09
2013-3-8,47.4,32.8,20.8,31.6,25.5,19.3,95,77,48,30.52,30.39,5,1,9,0.04
2013-3-9,52.8,43.3,31.2,37.1,32.3,26.4,83,66,52,30.39,29.96,10,2,13,0.00
2013-3-10,66.7,57.7,50.2,44.3,39.5,35.0,64,51,35,29.96,29.71,14,5,21,0.01
2013-3-11,59.0,44.3,32.5,49.6,41.2,30.4,96,89,60,29.88,29.60,17,6,24,0.05
2013-3-12,42.8,34.3,30.3,32.2,28.6,24.0,94,80,57,30.06,29.88,17,6,22,0.00
2013-3-13,32.6,27.4,24.3,28.8,22.4,19.5,95,82,69,30.38,30.06,16,6,20,0.00
2013-3-14,42.0,30.6,20.8,30.8,23.5,18.3,93,76,48,30.40,30.19,11,3,14,0.00
2013-3-15,49.0,38.7,26.5,40.8,34.2,25.2,96,85,71,30.19,29.77,7,2,10,0.01
2013-3-16,44.9,39.9,32.3,41.9,36.9,28.9,97,89,82,30.07,29.62,12,4,18,0.00
2013-3-17,38.0,33.2,29.6,30.2,27.2,23.7,89,79,69,30.18,29.98,10,4,18,0.00
2013-3-18,41.8,36.0,32.1,41.0,34.4,30.0,98,94,84,29.98,29.62,16,4,21,0.23
2013-3-19,40.3,31.2,24.7,29.8,20.8,16.9,88,66,43,30.15,29.87,21,8,30,0.00
2013-3-20,31.8,26.7,21.6,21.3,16.2,10.0,79,65,49,30.15,30.06,21,6,24,0.00
2013-3-21,33.7,24.1,15.6,18.3,14.1,9.5,84,67,46,30.10,30.02,11,4,15,0.00
2013-3-22,45.7,30.8,16.9,25.0,19.3,13.8,90,65,37,30.11,30.03,7,1,11,0.00
2013-3-23,48.4,37.7,29.7,28.0,24.5,20.1,82,60,40,30.10,29.93,12,2,12,0.00
2013-3-24,35.6,31.7,28.0,31.9,28.6,25.9,97,89,74,29.94,29.47,17,4,22,0.01
2013-3-25,34.4,30.2,27.1,31.6,28.4,26.3,97,93,78,30.05,29.54,14,7,18,0.10
2013-3-26,38.0,32.4,28.3,30.0,27.5,25.7,93,82,65,30.29,30.05,10,5,13,0.03
2013-3-27,40.6,32.6,25.3,31.1,25.9,22.4,93,78,51,30.37,30.29,10,3,14,0.00
2013-3-28,47.2,35.6,24.6,31.1,26.8,22.1,91,72,48,30.41,30.32,10,2,11,0.00
2013-3-29,56.0,40.6,26.9,36.8,31.1,25.4,95,72,41,30.35,30.23,7,1,10,0.00
2013-3-30,58.6,44.3,28.2,39.2,33.7,27.0,97,70,41,30.26,29.94,8,1,13,0.00
2013-3-31,59.9,49.2,43.5,45.3,42.2,38.3,96,78,50,29.94,29.76,16,4,19,0.00
2013-4-1,44.3,37.9,29.7,39.4,26.3,18.7,85,64,39,30.18,29.84,15,6,20,0.00
2013-4-2,44.1,33.1,23.8,23.5,20.2,15.5,85,61,33,30.33,30.18,13,3,14,0.00
2013-4-3,46.5,32.3,22.4,23.3,18.9,16.3,85,60,35,30.46,30.31,8,2,14,0.00
2013-4-10,78.8,69.6,53.6,67.6,63.3,52.0,96,81,66,29.83,29.74,26,8,27,0.31
2013-4-12,43.6,40.4,37.1,37.1,33.9,30.9,88,78,66,29.94,29.62,16,7,22,0.00
2013-4-13,48.4,42.5,39.2,38.2,35.3,32.8,86,76,61,30.03,29.94,18,5,22,0.00
2013-4-14,72.5,54.9,37.0,49.0,42.3,34.9,93,66,38,30.04,29.80,8,2,11,0.00
2013-4-15,68.6,61.3,55.1,58.0,52.4,45.5,80,73,58,29.94,29.82,11,4,16,0.00
2013-4-16,61.8,51.8,47.4,55.1,49.6,46.6,98,93,78,30.19,29.86,16,3,20,1.44
2013-4-17,74.9,58.4,46.3,68.3,55.5,45.8,98,91,76,30.21,29.87,12,3,16,0.69
2013-4-18,75.9,64.5,52.4,66.4,61.3,51.9,99,90,68,29.87,29.56,21,5,31,3.13
2013-4-19,52.4,39.2,35.3,51.8,34.6,29.8,98,84,70,29.99,29.55,20,9,28,0.75
2013-4-20,46.9,38.6,32.0,34.2,29.8,27.2,90,71,50,30.43,29.99,12,4,16,0.00
2013-4-21,55.8,42.9,28.0,34.7,28.8,23.5,84,59,36,30.55,30.38,11,2,11,0.00
2013-4-22,69.3,50.4,34.7,39.6,32.9,29.5,83,55,25,30.38,30.14,6,1,9,0.00
2013-4-24,46.7,43.4,39.2,40.4,35.9,33.1,93,75,60,30.24,30.06,12,4,18,0.01
2013-4-25,52.1,42.0,34.3,41.4,34.5,31.1,90,76,45,30.31,30.22,17,5,22,0.00
2013-5-2,80.8,73.3,65.0,58.1,55.9,53.9,74,55,44,30.09,30.02,8,1,10,0.00
2013-5-3,74.8,66.4,60.7,62.7,58.2,50.7,93,76,56,30.03,29.87,5,1,12,0.05
2013-5-4,68.2,62.7,59.1,51.6,47.2,43.2,65,57,51,29.94,29.90,7,2,13,0.00
2013-5-9,68.0,62.3,60.0,62.1,59.6,54.7,98,91,65,30.00,29.87,8,1,12,0.92
2013-5-10,68.5,59.9,47.4,62.6,58.1,44.9,99,94,79,29.92,29.79,10,3,14,0.24
2013-5-11,60.7,49.9,44.0,55.5,44.3,35.0,97,83,46,30.04,29.87,14,4,19,0.01
2013-5-12,54.3,46.1,36.8,38.9,33.6,29.5,90,64,40,30.14,30.04,15,3,19,0.00
2013-5-15,85.4,81.3,71.5,65.9,63.5,60.8,79,55,45,29.84,29.77,11,5,20,0.07
2013-5-16,80.6,72.2,65.4,66.6,63.7,58.3,91,76,48,29.91,29.80,11,2,14,0.00
2013-5-21,82.0,71.8,62.1,68.1,64.2,60.7,96,78,58,29.85,29.72,17,4,23,0.18
2013-5-22,75.5,67.9,63.6,65.5,62.7,58.3,95,84,64,29.78,29.69,13,4,22,0.11
2013-5-23,64.1,56.9,45.1,59.7,53.6,40.6,95,89,78,30.17,29.77,13,4,19,0.04
2013-5-24,65.2,52.0,40.7,44.8,40.8,35.5,95,70,35,30.38,30.17,9,3,15,0.00
2013-5-25,64.5,54.4,41.4,49.7,42.5,35.8,91,66,36,30.39,30.22,5,1,6,0.00
2013-5-26,67.6,58.3,50.9,55.7,48.0,42.7,90,69,52,30.30,30.15,4,0,7,0.08
2013-5-27,79.3,65.2,56.0,68.9,59.9,54.4,96,84,64,30.18,29.87,10,2,17,0.26
2013-5-28,80.8,72.3,62.7,69.7,65.9,61.2,96,81,66,29.94,29.85,18,5,26,0.00
2013-5-29,84.5,76.7,69.3,68.1,63.5,59.6,77,64,47,29.99,29.90,17,4,20,0.00
2013-5-30,84.8,76.8,70.0,71.6,66.8,64.1,82,72,59,30.02,29.92,13,4,24,0.03
2013-5-31,76.0,71.0,63.4,70.7,67.2,62.2,97,88,76,29.96,29.82,11,3,16,0.67
2013-6-1,74.0,68.3,63.1,70.1,64.8,62.2,98,89,79,29.88,29.74,15,4,22,0.82
2013-6-2,67.9,63.7,60.1,64.5,60.3,58.2,96,89,78,29.91,29.77,12,3,17,0.00
2013-6-9,66.1,64.7,63.3,64.9,63.3,62.1,96,96,95,29.83,29.81,5,3,13,0.62
2013-6-10,73.8,67.6,62.7,67.0,64.3,62.0,98,90,74,29.85,29.75,9,3,17,0.82
2013-6-11,83.4,73.4,62.4,69.0,65.1,59.6,92,76,57,29.96,29.84,8,2,13,0.00
2013-6-12,88.3,79.7,70.3,77.1,72.6,67.2,93,80,65,29.90,29.61,11,3,16,0.00
2013-6-13,82.2,71.1,61.2,73.2,63.4,55.0,98,78,52,29.97,29.57,19,5,23,0.93
2013-6-14,80.1,66.9,54.9,65.4,58.3,53.2,94,76,49,30.07,29.93,7,2,10,0.00
2013-6-15,82.2,70.7,58.8,67.5,62.1,57.5,97,76,53,30.08,29.91,10,2,16,0.00
2013-6-16,78.8,71.4,65.7,70.5,66.3,62.4,94,84,71,29.98,29.89,11,3,20,0.05
2013-6-17,88.3,75.1,65.4,73.3,67.5,63.9,98,80,46,29.95,29.84,4,1,8,0.00
2013-6-18,84.6,73.6,63.9,69.7,63.9,60.9,92,73,48,29.97,29.85,8,2,13,0.00
2013-6-19,82.2,71.4,59.6,64.2,60.4,57.3,93,70,50,30.08,29.96,5,1,9,0.00
2013-6-20,86.8,74.0,61.0,67.5,61.7,57.2,92,68,38,30.16,30.08,8,1,10,0.00
2013-6-21,88.6,75.1,63.1,68.8,64.4,59.4,93,71,44,30.17,29.99,9,1,13,0.00
2013-6-22,73.9,71.8,70.9,68.3,67.9,67.7,90,88,82,30.09,30.07,2,0,3,0.00
2013-6-26,80.7,75.6,69.9,73.6,69.6,67.2,91,82,70,29.80,29.71,11,2,16,0.00
2013-6-27,87.0,76.1,67.0,74.5,69.6,66.1,99,82,58,29.77,29.70,10,3,17,0.00
2013-6-28,84.7,74.7,65.7,70.6,65.0,60.9,96,73,47,29.69,29.58,11,3,23,0.27
2013-6-29,74.9,65.4,61.7,68.1,63.5,60.8,98,94,75,29.61,29.56,4,1,7,0.39
2013-6-30,73.7,68.6,65.5,67.0,64.6,62.2,97,87,77,29.87,29.77,11,3,15,0.25
2013-7-1,66.5,65.6,64.9,62.4,62.0,61.7,91,88,85,29.87,29.86,4,2,7,0.00
2013-7-6,66.6,66.4,66.2,65.1,65.0,64.9,96,96,95,30.06,30.05,0,0,1,0.07
2013-7-7,83.1,72.7,63.2,71.8,67.5,62.3,98,85,64,30.08,29.99,7,2,12,0.00
2013-7-8,83.8,76.6,68.6,75.4,70.9,66.8,95,83,71,30.08,29.98,15,3,15,0.00
2013-7-9,87.5,80.1,75.5,78.1,73.8,70.8,93,82,70,30.03,29.92,11,3,15,0.03
2013-7-10,81.5,76.4,67.5,74.4,70.7,64.9,95,83,70,29.94,29.81,8,2,14,0.02
2013-7-11,70.3,66.2,62.8,64.9,61.2,58.4,86,84,80,29.96,29.93,7,2,9,0.00
2013-7-21,74.9,73.8,72.5,71.3,70.8,70.4,93,90,87,29.89,29.87,0,0,1,0.00
2013-7-22,81.6,72.7,67.5,73.0,69.4,66.1,98,90,71,29.87,29.76,10,1,19,0.23
2013-7-23,87.3,75.4,64.6,75.6,69.0,58.3,97,82,55,29.87,29.73,12,3,15,0.00
2013-7-24,74.1,63.9,54.4,60.6,55.8,52.7,95,76,57,30.01,29.86,11,3,15,0.00
2013-7-25,76.9,65.1,52.8,59.0,55.9,51.7,97,75,50,30.10,30.01,6,1,14,0.00
2013-7-26,78.8,67.8,55.4,63.3,59.5,54.4,97,77,53,30.08,29.93,10,2,13,0.00
2013-7-27,76.2,68.4,58.8,65.3,60.1,52.3,95,76,54,29.93,29.84,12,3,17,0.00
2013-7-28,72.3,61.3,48.6,55.2,51.4,46.4,93,72,49,30.04,29.91,11,2,22,0.00
2013-7-29,77.8,64.5,53.5,58.6,55.3,52.3,97,75,46,30.17,30.04,6,1,10,0.00
2013-7-30,74.4,65.7,53.8,66.7,60.6,52.8,98,85,65,30.19,30.08,4,0,7,0.03
2013-7-31,75.7,68.9,64.0,70.6,66.5,62.5,97,92,82,30.09,29.92,6,1,8,0.06
2013-8-1,82.0,70.8,61.4,67.4,62.2,56.1,99,77,42,30.00,29.93,14,2,23,0.00
2013-8-2,83.0,68.4,54.6,66.9,61.2,52.9,96,79,56,29.98,29.92,14,3,21,0.00
2013-8-3,82.5,70.9,63.4,69.0,65.0,56.9,98,83,57,30.06,29.92,9,1,12,0.80
2013-8-4,77.7,65.4,56.5,59.6,55.7,52.5,90,73,48,30.16,30.06,8,2,11,0.00
2013-8-12,83.2,81.2,78.0,70.1,68.5,67.0,74,65,59,29.94,29.89,6,3,11,0.00
2013-8-25,76.6,68.8,64.0,63.5,62.4,61.0,90,80,64,30.22,30.19,0,0,0,0.00
2013-8-26,88.0,75.2,60.5,75.5,68.3,58.8,96,81,55,30.22,30.05,9,2,13,0.00
2013-8-27,90.3,79.1,70.9,78.0,72.6,68.3,96,82,59,30.07,29.93,7,2,15,0.00
2013-8-28,92.3,81.4,73.4,77.5,73.0,69.5,92,77,58,29.96,29.87,13,4,16,0.00
2013-8-29,90.8,78.2,69.4,73.5,69.8,66.8,98,78,47,30.02,29.94,7,1,8,0.00
2013-8-30,92.8,87.3,79.9,74.5,73.5,70.0,82,64,52,29.89,29.78,8,2,12,0.00
2013-8-31,93.9,76.2,67.1,77.9,70.7,66.2,98,84,59,29.83,29.71,14,2,21,0.49
2013-9-1,81.0,73.3,66.5,73.5,69.7,65.6,98,89,77,29.79,29.72,10,2,13,0.00
2013-9-2,83.0,72.6,64.8,69.8,66.2,60.8,98,82,53,29.91,29.75,9,2,15,0.00
2013-9-3,74.1,63.6,50.8,61.1,55.6,49.4,97,77,53,30.06,29.91,9,2,16,0.00
2013-9-4,82.8,66.4,50.3,62.4,57.2,49.4,99,76,47,30.15,30.05,6,1,10,0.00
2013-9-5,86.0,71.1,58.1,66.3,61.8,56.2,96,75,50,30.18,30.11,6,1,9,0.00
2013-9-6,86.5,71.6,59.4,66.5,58.4,50.9,88,65,44,30.21,30.06,6,1,7,0.00
2013-9-7,87.4,73.4,58.7,69.6,64.0,57.3,96,74,50,30.06,29.92,10,2,14,0.00
2013-9-8,90.3,77.5,66.7,72.7,68.5,65.0,96,76,48,29.96,29.89,5,1,9,0.00
2013-9-9,92.1,78.9,67.3,74.6,70.5,65.9,97,77,54,29.97,29.88,17,2,19,0.00
2013-9-10,79.3,78.9,78.5,73.9,73.7,73.4,85,84,83,29.95,29.95,4,2,7,0.00
2013-9-11,94.1,87.7,77.6,70.2,66.3,63.1,71,50,38,30.05,29.98,11,3,14,0.00
2013-9-12,83.6,73.1,62.6,70.1,64.7,51.7,97,77,45,29.98,29.85,10,2,20,0.11
2013-9-13,67.3,59.1,50.6,56.0,47.9,43.8,91,68,44,30.10,29.97,12,3,15,0.00
2013-9-14,74.7,56.7,40.3,48.9,43.8,38.5,96,67,31,30.20,30.09,5,0,8,0.00
2013-9-15,76.8,59.7,43.7,60.2,49.7,41.8,96,74,39,30.12,30.00,11,2,16,0.00
2013-9-16,64.5,60.0,53.2,57.6,54.9,50.0,94,84,69,30.28,30.08,9,2,11,0.01
2013-9-17,78.3,62.1,48.0,56.5,51.7,46.6,96,72,41,30.32,30.14,7,0,9,0.00
2013-9-18,82.7,68.9,59.0,67.0,60.2,53.6,88,75,55,30.14,30.00,11,2,12,0.00
2013-9-19,82.2,72.0,64.9,72.4,68.3,63.9,98,89,70,30.05,29.89,11,2,17,1.19
2013-9-20,77.8,71.0,64.7,70.9,68.4,63.8,97,92,78,29.92,29.78,10,2,15,0.69
2013-9-21,70.1,60.8,52.4,63.8,52.7,48.0,97,77,47,29.91,29.76,12,2,14,0.11
2013-9-22,70.0,56.3,44.3,52.9,48.0,43.2,97,76,47,30.02,29.90,6,1,9,0.00
2013-9-23,74.6,58.0,44.7,52.5,48.0,43.4,96,72,41,30.11,30.01,5,1,9,0.00
2013-9-24,79.2,62.1,46.5,61.1,52.5,44.9,95,73,49,30.07,29.89,6,1,8,0.00
2013-9-25,81.9,66.0,55.5,62.2,54.9,50.1,86,69,49,29.92,29.85,6,1,10,0.00
2013-9-26,80.7,63.7,48.5,58.9,53.5,47.0,97,72,42,30.06,29.92,4,0,9,0.00
2013-9-27,83.5,65.2,48.4,59.6,52.4,47.0,96,68,33,30.16,30.06,5,0,7,0.00
2013-9-28,55.6,52.9,50.9,52.1,50.7,49.4,95,92,86,30.10,30.08,0,0,1,0.00
2013-10-4,72.8,72.2,71.4,69.4,69.0,68.1,91,90,89,30.00,29.99,4,1,6,0.00
2013-10-5,73.3,69.8,65.1,72.0,68.3,63.9,98,95,89,30.00,29.85,11,2,18,2.34
2013-10-6,65.4,58.5,45.7,64.8,55.1,40.5,98,89,67,29.87,29.72,11,2,20,1.13
2013-10-7,62.5,51.4,44.5,50.8,46.0,40.8,95,82,60,30.15,29.80,15,2,15,0.01
2013-10-8,74.3,56.7,43.3,54.7,48.5,42.5,98,77,43,30.26,30.16,3,0,7,0.00
2013-10-9,75.8,58.3,44.7,54.6,48.8,42.7,95,74,44,30.24,30.14,4,0,8,0.00
2013-10-10,78.4,60.9,45.6,59.2,51.9,44.9,98,76,42,30.19,30.07,3,0,7,0.00
2013-10-11,78.6,60.4,44.0,56.9,49.8,43.2,98,73,34,30.11,30.01,5,0,8,0.00
2013-10-12,77.2,62.4,47.8,61.8,55.5,47.0,98,80,54,30.11,30.02,8,1,18,0.00
2013-10-13,70.5,60.5,49.4,62.4,46.5,38.6,94,63,33,30.35,30.12,9,2,16,0.04
2013-10-14,73.4,54.6,41.7,50.7,44.7,39.6,94,72,37,30.36,30.18,6,1,8,0.00
2013-10-15,64.4,58.7,50.5,62.5,55.6,45.3,96,90,77,30.18,29.89,12,2,16,0.05
2013-10-16,63.7,54.8,42.9,62.0,48.5,40.3,95,80,58,29.98,29.87,10,2,13,0.00
2013-10-17,53.6,46.2,39.1,48.4,43.1,37.8,97,89,71,29.97,29.90,8,1,15,0.20
2013-10-18,64.1,50.4,41.8,50.9,44.1,40.1,96,81,50,30.00,29.92,12,2,18,0.00
2013-10-19,52.8,44.9,40.1,42.7,39.4,34.9,96,82,51,29.98,29.88,13,2,17,0.29
2013-10-20,63.2,50.0,38.5,46.2,40.8,35.8,91,72,49,30.00,29.92,17,4,23,0.00
2013-10-21,54.9,48.4,45.2,47.1,42.9,41.5,87,81,73,29.95,29.93,11,3,16,0.00
2013-10-22,41.7,39.3,38.3,38.4,37.1,36.5,94,92,88,29.90,29.84,6,2,9,0.00
2013-10-23,47.3,38.7,32.8,37.2,33.9,31.3,97,84,56,30.05,29.82,9,3,15,0.24
2013-10-24,38.0,36.0,33.2,33.6,30.5,27.7,85,80,76,30.32,30.23,4,1,6,0.00
2013-10-25,49.7,37.0,27.5,32.4,27.3,25.0,91,70,43,30.47,30.27,8,1,12,0.00
2013-10-26,55.8,42.1,32.8,42.0,32.7,26.7,84,70,58,30.27,29.94,18,5,24,0.00
2013-10-27,57.2,40.9,28.1,38.7,32.2,26.9,97,75,40,30.13,30.05,12,1,12,0.00
2013-10-28,63.6,43.0,28.7,41.4,33.6,27.5,98,75,36,30.33,30.10,6,0,6,0.00
2013-10-29,56.7,46.4,36.9,46.7,40.4,34.2,92,80,67,30.36,30.20,3,0,5,0.03
2013-10-30,63.2,55.2,49.1,62.6,54.3,46.6,98,97,91,30.19,29.94,5,1,8,0.09
2013-10-31,63.5,60.5,52.1,62.9,59.4,51.6,99,96,90,29.94,29.29,16,5,34,2.83
2013-11-1,57.5,49.7,44.9,51.2,45.5,41.9,98,86,68,29.78,29.41,17,5,21,0.02
2013-11-2,51.5,45.0,40.9,43.8,40.6,37.7,96,85,64,30.14,29.77,12,3,21,0.00
2013-11-3,56.7,42.1,31.9,42.2,36.2,31.1,98,82,50,30.34,30.14,5,0,6,0.00
2013-11-4,53.2,47.0,40.1,43.6,39.6,35.8,85,76,63,30.35,30.26,11,2,11,0.00
2013-11-6,55.5,55.2,54.7,53.5,53.1,52.9,94,93,92,29.97,29.92,16,9,24,0.00
2013-11-9,57.8,46.2,41.3,43.5,33.4,28.0,72,61,54,30.18,30.02,16,7,23,0.00
2013-11-11,29.7,29.6,29.5,28.4,28.3,28.2,95,95,95,30.38,30.38,11,8,19,0.00
2013-11-12,34.3,29.0,22.9,28.2,24.5,20.1,95,83,69,30.68,30.38,13,4,16,0.00
2013-11-13,39.3,27.5,18.0,22.9,19.6,15.9,93,75,45,30.67,30.46,12,3,15,0.00
2013-11-15,53.3,47.6,41.5,36.4,32.9,29.2,82,57,45,30.11,30.05,11,3,15,0.00
2013-11-16,59.3,48.5,41.5,53.1,45.8,36.4,96,91,78,30.06,29.90,11,3,14,0.00
2013-11-17,68.2,55.4,47.5,63.1,47.4,41.8,90,75,58,29.80,29.36,24,10,34,0.01
2013-11-18,48.5,42.1,31.4,42.2,34.6,27.7,88,75,50,30.24,29.80,20,6,31,0.00
2013-11-19,43.7,34.3,27.2,31.7,28.5,24.9,91,80,61,30.38,30.25,6,1,10,0.00
2013-11-21,49.5,46.3,43.4,48.7,43.9,37.5,97,91,77,30.27,30.18,5,1,9,0.27
2013-11-22,49.8,42.5,31.6,49.3,40.6,29.0,98,93,84,30.45,30.17,17,5,21,0.23
2013-11-23,31.5,25.9,18.3,28.9,20.3,11.4,92,79,61,30.66,30.42,16,7,23,0.00
2013-11-24,28.3,19.3,13.3,15.3,11.3,8.2,83,72,44,30.76,30.56,10,3,14,0.00
2013-11-25,32.5,27.1,18.2,22.8,17.3,11.6,76,67,54,30.56,30.20,10,4,17,0.00
2013-11-26,36.4,31.9,28.7,29.5,26.6,22.9,91,81,69,30.23,30.00,13,3,21,0.00
2013-11-27,28.7,21.6,16.8,25.5,15.8,11.6,88,78,65,30.34,30.04,15,5,21,0.00
2013-11-28,35.9,25.6,17.6,21.1,16.9,13.0,87,70,49,30.49,30.28,15,3,19,0.00
2013-11-29,39.7,27.3,15.3,25.0,20.0,13.2,93,75,53,30.67,30.50,5,0,7,0.00
2013-11-30,52.1,31.1,26.6,30.6,24.0,22.0,86,76,38,30.51,30.20,9,1,17,0.00
2013-12-4,61.1,57.3,52.2,57.8,56.1,51.9,99,96,88,29.72,29.62,15,3,17,0.00
2013-12-5,59.3,59.2,59.1,56.4,56.3,56.2,90,90,90,29.72,29.70,7,4,13,0.00
2013-12-6,20.4,19.4,18.6,16.6,15.5,14.8,85,84,84,30.50,30.49,5,3,7,0.00
2013-12-7,23.1,16.1,7.2,15.3,11.4,4.9,90,82,69,30.70,30.50,8,2,11,0.00
2013-12-8,28.3,23.6,16.7,27.3,20.4,13.0,96,88,80,30.58,30.03,13,3,18,0.00
2013-12-9,28.8,23.8,19.0,27.8,20.3,13.6,96,86,77,30.29,30.02,13,5,19,0.00
2013-12-10,27.5,18.7,8.0,17.5,12.4,5.0,89,77,60,30.39,30.19,19,4,23,0.00
2013-12-11,28.6,17.4,7.3,22.7,13.6,3.0,93,85,75,30.60,30.35,10,4,17,0.00
2013-12-12,22.1,11.3,-0.8,7.6,1.9,-3.9,88,67,43,30.62,30.38,15,4,19,0.00
2013-12-13,35.2,25.3,15.2,30.4,18.3,6.7,97,75,61,30.38,30.15,9,2,16,0.00
2013-12-14,34.1,31.2,26.2,33.6,30.3,24.7,98,97,93,30.15,29.76,13,3,18,0.06
2013-12-15,27.5,21.3,16.5,26.1,17.8,12.0,95,86,79,30.16,29.97,15,6,22,0.00
2013-12-16,27.9,22.7,17.5,26.9,20.9,15.6,96,93,89,30.17,30.04,6,1,9,0.00
2013-12-17,26.7,22.1,19.7,25.7,20.9,18.3,96,95,94,30.16,30.06,12,4,13,0.00
2013-12-18,37.7,34.9,33.1,23.0,19.8,17.3,58,54,47,30.15,30.02,14,4,18,0.00
2013-12-19,50.9,44.5,36.5,45.9,37.5,23.5,84,77,58,30.04,29.88,20,6,21,0.22
2013-12-20,59.5,54.7,50.8,57.5,52.2,45.9,97,91,83,29.88,29.74,15,7,20,0.35
2013-12-21,40.6,38.2,35.5,40.1,37.6,34.7,98,98,97,29.83,29.40,7,2,12,1.74
2013-12-22,43.4,36.4,30.1,43.1,35.3,27.8,99,96,91,30.11,29.36,17,6,24,0.03
2013-12-23,30.1,24.5,14.1,28.2,21.0,9.2,93,86,78,30.48,30.12,16,6,19,0.00
2013-12-24,22.7,12.2,4.0,14.4,7.4,0.0,89,81,66,30.64,30.48,10,3,15,0.00
2013-12-25,29.6,23.8,17.7,26.2,18.1,13.1,87,79,70,30.51,30.21,10,4,18,0.00
2013-12-26,37.0,30.5,21.9,27.9,24.3,18.8,93,78,63,30.41,30.20,12,4,18,0.00
2013-12-27,32.9,32.5,32.2,26.3,25.9,25.5,77,76,76,30.34,30.33,9,6,13,0.00
2013-12-29,31.4,28.7,24.8,30.4,27.0,22.8,96,93,90,30.11,29.92,13,6,16,0.00
2013-12-30,24.9,19.6,16.7,23.1,14.6,10.5,93,81,74,30.33,30.12,11,3,18,0.00
2013-12-31,30.2,26.0,19.0,21.1,18.4,13.4,86,73,62,30.34,30.23,9,2,12,0.00
2014-1-1,39.3,28.5,18.6,31.8,24.6,16.9,94,86,72,30.30,30.06,5,1,7,0.00
2014-1-2,26.2,16.1,5.2,23.7,13.2,-0.5,93,88,70,30.41,29.96,17,6,21,0.00